AKJ224 VOHS-VABB
Flight info
| Callsign | AKJ224 |
|---|---|
| Flight time | N/A |
| Altitude | 36000 |
| Route | TAMIV5 APUSU W18 OPAKA EMRAK2A |
| Aircraft | B738/M-SDE2E3FGHIRWXY/LB1 |
Departure
| Time | 2026-04-25 09:10 |
|---|---|
| Airport | Rajiv Gandhi International Airport (VOHS) |
Arrival
| Time | N/A |
|---|---|
| Airport | Chhatrapati Shivaji Maharaj International Airport (VABB) |
| Time | Latitude | Longitude | Altitude | Speed | Heading |
|---|---|---|---|---|---|
| 2026-04-25 08:29 | 17.23435 | 78.42895 | 1999 ft | 0 kts | 360° |
| 2026-04-25 08:51 | 17.23430 | 78.42895 | 1999 ft | 2 kts | 0° |
| 2026-04-25 08:52 | 17.23416 | 78.42895 | 1999 ft | 2 kts | 359° |
| 2026-04-25 08:52 | 17.23400 | 78.42895 | 2000 ft | 2 kts | 360° |
| 2026-04-25 08:52 | 17.23385 | 78.42895 | 2000 ft | 2 kts | 359° |
| 2026-04-25 08:52 | 17.23370 | 78.42895 | 2000 ft | 2 kts | 359° |
| 2026-04-25 08:53 | 17.23355 | 78.42893 | 2000 ft | 2 kts | 21° |
| 2026-04-25 08:53 | 17.23342 | 78.42886 | 2000 ft | 2 kts | 43° |
| 2026-04-25 08:53 | 17.23333 | 78.42873 | 2000 ft | 2 kts | 66° |
| 2026-04-25 08:53 | 17.23329 | 78.42860 | 2000 ft | 0 kts | 86° |
| 2026-04-25 08:54 | 17.23329 | 78.42855 | 1999 ft | 0 kts | 92° |
| 2026-04-25 08:55 | 17.23329 | 78.42872 | 2000 ft | 6 kts | 92° |
| 2026-04-25 08:56 | 17.23328 | 78.42889 | 2001 ft | 0 kts | 92° |
| 2026-04-25 08:58 | 17.23329 | 78.42908 | 2001 ft | 8 kts | 85° |
| 2026-04-25 08:58 | 17.23333 | 78.42963 | 2003 ft | 7 kts | 86° |
| 2026-04-25 08:58 | 17.23335 | 78.43016 | 2005 ft | 6 kts | 89° |
| 2026-04-25 08:59 | 17.23336 | 78.43064 | 2007 ft | 6 kts | 90° |
| 2026-04-25 08:59 | 17.23335 | 78.43098 | 2008 ft | 0 kts | 93° |
| 2026-04-25 08:59 | 17.23335 | 78.43105 | 2008 ft | 4 kts | 91° |
| 2026-04-25 09:00 | 17.23315 | 78.43154 | 2010 ft | 6 kts | 135° |
| 2026-04-25 09:00 | 17.23284 | 78.43164 | 2010 ft | 3 kts | 172° |
| 2026-04-25 09:00 | 17.23262 | 78.43166 | 2010 ft | 2 kts | 178° |
| 2026-04-25 09:00 | 17.23222 | 78.43166 | 2011 ft | 7 kts | 179° |
| 2026-04-25 09:01 | 17.23191 | 78.43167 | 2011 ft | 0 kts | 176° |
| 2026-04-25 09:02 | 17.23190 | 78.43168 | 2011 ft | 0 kts | 176° |
| 2026-04-25 09:02 | 17.23156 | 78.43169 | 2010 ft | 10 kts | 178° |
| 2026-04-25 09:02 | 17.23087 | 78.43241 | 2012 ft | 19 kts | 92° |
| 2026-04-25 09:02 | 17.23092 | 78.43385 | 2016 ft | 19 kts | 89° |
| 2026-04-25 09:03 | 17.23095 | 78.43525 | 2019 ft | 19 kts | 90° |
| 2026-04-25 09:03 | 17.23097 | 78.43660 | 2024 ft | 17 kts | 89° |
| 2026-04-25 09:03 | 17.23099 | 78.43785 | 2027 ft | 17 kts | 88° |
| 2026-04-25 09:03 | 17.23101 | 78.43907 | 2031 ft | 16 kts | 89° |
| 2026-04-25 09:04 | 17.23102 | 78.44019 | 2035 ft | 14 kts | 88° |
| 2026-04-25 09:04 | 17.23103 | 78.44124 | 2038 ft | 14 kts | 89° |
| 2026-04-25 09:04 | 17.23105 | 78.44226 | 2039 ft | 15 kts | 89° |
| 2026-04-25 09:04 | 17.23107 | 78.44350 | 2040 ft | 18 kts | 88° |
| 2026-04-25 09:05 | 17.23109 | 78.44501 | 2040 ft | 22 kts | 89° |
| 2026-04-25 09:05 | 17.23112 | 78.44666 | 2037 ft | 22 kts | 90° |
| 2026-04-25 09:05 | 17.23114 | 78.44836 | 2030 ft | 24 kts | 88° |
| 2026-04-25 09:05 | 17.23116 | 78.45022 | 2023 ft | 26 kts | 90° |
| 2026-04-25 09:06 | 17.23117 | 78.45184 | 2021 ft | 12 kts | 90° |
| 2026-04-25 09:06 | 17.23107 | 78.45280 | 2018 ft | 13 kts | 121° |
| 2026-04-25 09:06 | 17.23041 | 78.45318 | 2021 ft | 9 kts | 176° |
| 2026-04-25 09:06 | 17.22996 | 78.45312 | 2023 ft | 4 kts | 204° |
| 2026-04-25 09:07 | 17.22979 | 78.45300 | 2023 ft | 2 kts | 217° |
| 2026-04-25 09:07 | 17.22974 | 78.45297 | 2024 ft | 0 kts | 217° |
| 2026-04-25 09:07 | 17.22951 | 78.45278 | 2024 ft | 8 kts | 218° |
| 2026-04-25 09:07 | 17.22921 | 78.45245 | 2025 ft | 4 kts | 238° |
| 2026-04-25 09:08 | 17.22914 | 78.45227 | 2026 ft | 0 kts | 267° |
| 2026-04-25 09:09 | 17.22913 | 78.45185 | 2027 ft | 20 kts | 268° |
| 2026-04-25 09:09 | 17.22903 | 78.44769 | 2035 ft | 92 kts | 268° |
| 2026-04-25 09:10 | 17.22891 | 78.43872 | 2030 ft | 155 kts | 269° |
| 2026-04-25 09:10 | 17.22889 | 78.42556 | 2162 ft | 195 kts | 269° |
| 2026-04-25 09:10 | 17.22775 | 78.41178 | 2824 ft | 186 kts | 260° |
| 2026-04-25 09:10 | 17.22451 | 78.39878 | 3472 ft | 189 kts | 250° |
| 2026-04-25 09:11 | 17.21138 | 78.37342 | 4602 ft | 211 kts | 231° |
| 2026-04-25 09:11 | 17.20146 | 78.36155 | 5121 ft | 227 kts | 223° |
| 2026-04-25 09:11 | 17.18896 | 78.35025 | 5639 ft | 245 kts | 214° |
| 2026-04-25 09:12 | 17.17438 | 78.34022 | 6149 ft | 263 kts | 208° |
| 2026-04-25 09:12 | 17.15743 | 78.33124 | 6658 ft | 283 kts | 207° |
| 2026-04-25 09:12 | 17.14143 | 78.31820 | 7167 ft | 304 kts | 229° |
| 2026-04-25 09:12 | 17.12973 | 78.29909 | 7677 ft | 323 kts | 248° |
| 2026-04-25 09:13 | 17.12394 | 78.27604 | 8174 ft | 330 kts | 265° |
| 2026-04-25 09:13 | 17.12616 | 78.25268 | 8633 ft | 324 kts | 293° |
| 2026-04-25 09:13 | 17.13677 | 78.23176 | 9141 ft | 322 kts | 301° |
| 2026-04-25 09:13 | 17.14766 | 78.21147 | 9607 ft | 325 kts | 301° |
| 2026-04-25 09:14 | 17.15872 | 78.19083 | 10074 ft | 327 kts | 301° |
| 2026-04-25 09:14 | 17.16984 | 78.17007 | 10539 ft | 329 kts | 301° |
| 2026-04-25 09:14 | 17.18107 | 78.14910 | 11024 ft | 330 kts | 301° |
| 2026-04-25 09:14 | 17.19236 | 78.12813 | 11496 ft | 332 kts | 301° |
| 2026-04-25 09:15 | 17.20354 | 78.10726 | 11957 ft | 334 kts | 301° |
| 2026-04-25 09:15 | 17.21492 | 78.08602 | 12447 ft | 337 kts | 301° |
| 2026-04-25 09:15 | 17.22208 | 78.06265 | 12962 ft | 341 kts | 275° |
| 2026-04-25 09:15 | 17.22293 | 78.03780 | 13457 ft | 344 kts | 271° |
| 2026-04-25 09:16 | 17.22282 | 78.01289 | 13928 ft | 345 kts | 270° |
| 2026-04-25 09:16 | 17.22250 | 77.98780 | 14402 ft | 345 kts | 270° |
| 2026-04-25 09:16 | 17.22213 | 77.96287 | 14865 ft | 347 kts | 270° |
| 2026-04-25 09:16 | 17.22174 | 77.93771 | 15336 ft | 347 kts | 270° |
| 2026-04-25 09:17 | 17.22099 | 77.88707 | 16288 ft | 349 kts | 269° |
| 2026-04-25 09:17 | 17.22059 | 77.86182 | 16761 ft | 349 kts | 269° |
| 2026-04-25 09:17 | 17.22021 | 77.83659 | 17238 ft | 350 kts | 269° |
| 2026-04-25 09:18 | 17.21982 | 77.81123 | 17726 ft | 351 kts | 269° |
| 2026-04-25 09:18 | 17.21942 | 77.78560 | 18219 ft | 352 kts | 268° |
| 2026-04-25 09:18 | 17.21901 | 77.75988 | 18718 ft | 355 kts | 268° |
| 2026-04-25 09:18 | 17.21861 | 77.73441 | 19200 ft | 356 kts | 268° |
| 2026-04-25 09:19 | 17.21817 | 77.70844 | 19689 ft | 359 kts | 267° |
| 2026-04-25 09:19 | 17.21774 | 77.68233 | 20191 ft | 360 kts | 266° |
| 2026-04-25 09:19 | 17.21729 | 77.65616 | 20689 ft | 362 kts | 266° |
| 2026-04-25 09:19 | 17.21686 | 77.63004 | 21189 ft | 363 kts | 266° |
| 2026-04-25 09:20 | 17.21640 | 77.60348 | 21703 ft | 365 kts | 265° |
| 2026-04-25 09:20 | 17.21596 | 77.57716 | 22185 ft | 366 kts | 265° |
| 2026-04-25 09:20 | 17.21549 | 77.55028 | 22704 ft | 367 kts | 265° |
| 2026-04-25 09:20 | 17.21499 | 77.52385 | 23210 ft | 369 kts | 265° |
| 2026-04-25 09:21 | 17.21453 | 77.49692 | 23729 ft | 371 kts | 265° |
| 2026-04-25 09:21 | 17.21403 | 77.47014 | 24223 ft | 373 kts | 265° |
| 2026-04-25 09:21 | 17.21357 | 77.44301 | 24706 ft | 373 kts | 265° |
| 2026-04-25 09:21 | 17.21307 | 77.41595 | 25180 ft | 374 kts | 265° |
| 2026-04-25 09:22 | 17.21259 | 77.38859 | 25665 ft | 375 kts | 265° |
| 2026-04-25 09:22 | 17.21210 | 77.36146 | 26140 ft | 375 kts | 265° |
| 2026-04-25 09:22 | 17.21160 | 77.33439 | 26619 ft | 375 kts | 265° |
| 2026-04-25 09:22 | 17.21110 | 77.30739 | 27102 ft | 374 kts | 265° |
| 2026-04-25 09:23 | 17.21061 | 77.28024 | 27591 ft | 373 kts | 265° |
| 2026-04-25 09:23 | 17.21010 | 77.25327 | 28071 ft | 371 kts | 265° |
| 2026-04-25 09:23 | 17.20961 | 77.22636 | 28541 ft | 368 kts | 265° |
| 2026-04-25 09:23 | 17.20911 | 77.19994 | 29039 ft | 365 kts | 265° |
| 2026-04-25 09:24 | 17.20860 | 77.17367 | 29517 ft | 362 kts | 265° |
| 2026-04-25 09:24 | 17.20813 | 77.14737 | 29998 ft | 359 kts | 264° |
| 2026-04-25 09:24 | 17.20764 | 77.12157 | 30466 ft | 355 kts | 264° |
| 2026-04-25 09:24 | 17.20714 | 77.09621 | 30939 ft | 350 kts | 264° |
| 2026-04-25 09:25 | 17.20665 | 77.07087 | 31424 ft | 344 kts | 263° |
| 2026-04-25 09:25 | 17.20617 | 77.04609 | 31907 ft | 338 kts | 263° |
| 2026-04-25 09:25 | 17.20569 | 77.02206 | 32366 ft | 332 kts | 263° |
| 2026-04-25 09:25 | 17.20522 | 76.99822 | 32819 ft | 324 kts | 263° |
| 2026-04-25 09:26 | 17.20475 | 76.97512 | 33357 ft | 316 kts | 262° |
| 2026-04-25 09:26 | 17.20428 | 76.95245 | 33880 ft | 307 kts | 262° |
| 2026-04-25 09:26 | 17.20386 | 76.93055 | 34405 ft | 298 kts | 262° |
| 2026-04-25 09:26 | 17.20341 | 76.90936 | 34926 ft | 287 kts | 262° |
| 2026-04-25 09:27 | 17.20302 | 76.88905 | 35435 ft | 275 kts | 261° |
| 2026-04-25 09:27 | 17.20261 | 76.86973 | 35920 ft | 261 kts | 262° |
| 2026-04-25 09:27 | 17.20224 | 76.85128 | 36350 ft | 245 kts | 261° |
| 2026-04-25 09:27 | 17.20061 | 76.83375 | 36207 ft | 246 kts | 248° |
| 2026-04-25 09:28 | 17.19232 | 76.81766 | 35005 ft | 278 kts | 218° |
| 2026-04-25 09:28 | 17.17280 | 76.81094 | 33055 ft | 347 kts | 172° |
| 2026-04-25 09:28 | 17.15302 | 76.82814 | 30901 ft | 451 kts | 108° |
| 2026-04-25 09:28 | 17.16174 | 76.85942 | 27595 ft | 519 kts | 31° |
| 2026-04-25 09:29 | 17.19251 | 76.86001 | 22346 ft | 530 kts | 311° |
| 2026-04-25 09:29 | 17.19494 | 76.82858 | 17153 ft | 517 kts | 224° |
| 2026-04-25 09:29 | 17.16543 | 76.82980 | 16085 ft | 460 kts | 114° |
| 2026-04-25 09:29 | 17.17619 | 76.85317 | 15512 ft | 408 kts | 356° |
| 2026-04-25 09:30 | 17.18850 | 76.83289 | 12715 ft | 435 kts | 237° |
| 2026-04-25 09:30 | 17.16365 | 76.82545 | 12915 ft | 363 kts | 175° |
| 2026-04-25 09:30 | 17.14246 | 76.82200 | 14971 ft | 298 kts | 201° |
| 2026-04-25 09:30 | 17.12560 | 76.80990 | 15587 ft | 301 kts | 233° |
| 2026-04-25 09:31 | 17.11695 | 76.79017 | 16225 ft | 301 kts | 264° |
| 2026-04-25 09:31 | 17.11912 | 76.76888 | 16804 ft | 304 kts | 293° |
| 2026-04-25 09:31 | 17.12929 | 76.74937 | 17373 ft | 309 kts | 298° |
| 2026-04-25 09:31 | 17.13995 | 76.72960 | 17887 ft | 316 kts | 298° |